createdAt,value
2023-03-26T00:01:29.886Z,9.48
2023-03-26T00:03:58.125Z,12.73
2023-03-26T00:06:36.864Z,10.00
2023-03-26T00:09:06.347Z,10.80
2023-03-26T00:11:34.573Z,10.13
2023-03-26T00:14:02.823Z,8.40
2023-03-26T00:16:32.187Z,6.28
2023-03-26T00:19:01.434Z,8.73
2023-03-26T00:21:30.563Z,10.98
2023-03-26T00:24:04.462Z,8.90
2023-03-26T00:26:34.026Z,7.85
2023-03-26T00:29:03.515Z,7.80
2023-03-26T00:31:31.332Z,7.45
2023-03-26T00:33:59.645Z,11.88
2023-03-26T00:36:27.118Z,11.63
2023-03-26T00:38:55.304Z,13.13
2023-03-26T00:41:31.212Z,10.60
2023-03-26T00:44:00.964Z,11.77
2023-03-26T00:46:30.842Z,10.35
2023-03-26T00:49:03.893Z,10.90
2023-03-26T00:51:31.754Z,13.75
2023-03-26T00:53:59.001Z,11.02
2023-03-26T00:56:26.586Z,11.32
2023-03-26T00:58:53.839Z,12.77
2023-03-26T01:01:29.373Z,12.90
2023-03-26T01:04:07.346Z,12.60
2023-03-26T01:06:36.886Z,11.35
2023-03-26T01:09:18.909Z,14.02
2023-03-26T01:11:48.967Z,12.15
2023-03-26T01:14:26.996Z,9.77
2023-03-26T01:16:59.479Z,13.98
2023-03-26T01:19:40.161Z,10.40
2023-03-26T01:22:27.153Z,11.63
2023-03-26T01:24:56.731Z,11.57
2023-03-26T01:27:43.430Z,11.82
2023-03-26T01:30:19.649Z,10.82
2023-03-26T01:33:22.233Z,10.20
2023-03-26T01:36:10.797Z,13.25
2023-03-26T01:39:00.543Z,11.90
2023-03-26T01:42:10.475Z,14.85
2023-03-26T01:44:48.805Z,12.68
2023-03-26T01:47:17.896Z,11.05
2023-03-26T01:49:45.223Z,10.43
2023-03-26T01:52:16.673Z,11.82
2023-03-26T01:54:46.787Z,11.38
2023-03-26T01:57:33.774Z,13.35
2023-03-26T02:00:13.821Z,13.27
2023-03-26T02:03:17.775Z,11.43
2023-03-26T02:06:03.855Z,15.00
2023-03-26T02:08:39.632Z,12.77
2023-03-26T02:11:11.863Z,14.18
2023-03-26T02:13:44.162Z,12.07
2023-03-26T02:16:14.764Z,14.30
2023-03-26T02:18:43.620Z,16.25
2023-03-26T02:21:14.521Z,16.75
2023-03-26T02:23:47.159Z,14.73
2023-03-26T02:26:20.410Z,15.43
2023-03-26T02:29:05.037Z,17.73
2023-03-26T02:31:33.875Z,13.50
2023-03-26T02:34:01.333Z,14.32
2023-03-26T02:36:30.565Z,15.20
2023-03-26T02:39:01.214Z,11.65
2023-03-26T02:41:31.807Z,14.50
2023-03-26T02:44:06.466Z,16.88
2023-03-26T02:46:56.872Z,15.68
2023-03-26T02:49:47.328Z,14.05
2023-03-26T02:52:22.474Z,12.48
2023-03-26T02:54:51.757Z,15.45
2023-03-26T02:57:24.487Z,14.82
2023-03-26T03:00:17.524Z,17.60
2023-03-26T03:03:05.166Z,17.77
2023-03-26T03:05:33.830Z,15.75
2023-03-26T03:08:20.742Z,12.82
2023-03-26T03:11:14.786Z,14.27
2023-03-26T03:13:49.288Z,14.18
2023-03-26T03:16:20.572Z,12.40
2023-03-26T03:18:54.676Z,12.15
2023-03-26T03:21:25.071Z,14.55
2023-03-26T03:23:52.229Z,12.68
2023-03-26T03:26:22.648Z,12.20
2023-03-26T03:29:15.156Z,12.57
2023-03-26T03:31:46.599Z,12.80
2023-03-26T03:34:28.495Z,12.68
2023-03-26T03:36:56.105Z,14.32
2023-03-26T03:39:32.614Z,16.55
2023-03-26T03:41:59.778Z,12.02
2023-03-26T03:44:27.264Z,12.05
2023-03-26T03:46:56.164Z,11.70
2023-03-26T03:49:23.794Z,12.88
2023-03-26T03:51:51.189Z,11.10
2023-03-26T03:54:26.212Z,12.38
2023-03-26T03:57:10.643Z,13.35
2023-03-26T04:00:06.896Z,9.63
2023-03-26T04:02:43.265Z,10.27
2023-03-26T04:05:12.113Z,13.52
2023-03-26T04:07:45.656Z,11.68
2023-03-26T04:10:35.649Z,11.30
2023-03-26T04:13:03.027Z,11.70
2023-03-26T04:15:53.206Z,13.40
2023-03-26T04:18:22.451Z,14.93
2023-03-26T04:20:50.898Z,12.23
2023-03-26T04:23:26.740Z,11.20
2023-03-26T04:26:10.651Z,11.88
2023-03-26T04:29:00.034Z,12.25
2023-03-26T04:31:30.826Z,13.40
2023-03-26T04:34:06.872Z,11.80
2023-03-26T04:36:42.541Z,11.52
2023-03-26T04:39:13.334Z,12.98
2023-03-26T04:42:00.727Z,16.10
2023-03-26T04:44:35.104Z,13.57
2023-03-26T04:47:07.280Z,13.07
2023-03-26T04:49:43.193Z,15.50
2023-03-26T04:52:12.557Z,10.68
2023-03-26T04:54:58.624Z,11.77
2023-03-26T04:57:43.772Z,11.70
2023-03-26T05:00:20.435Z,12.10
2023-03-26T05:02:56.295Z,14.10
2023-03-26T05:05:25.577Z,10.63
2023-03-26T05:07:54.521Z,11.82
2023-03-26T05:10:22.560Z,11.23
2023-03-26T05:13:11.098Z,12.18
2023-03-26T05:15:41.203Z,9.77
2023-03-26T05:18:12.245Z,10.80
2023-03-26T05:20:46.770Z,13.52
2023-03-26T05:23:14.028Z,10.90
2023-03-26T05:25:49.857Z,10.77
2023-03-26T05:28:23.582Z,10.48
2023-03-26T05:30:57.485Z,12.95
2023-03-26T05:33:27.379Z,10.85
2023-03-26T05:36:13.475Z,12.50
2023-03-26T05:38:49.674Z,11.13
2023-03-26T05:41:46.084Z,10.35
2023-03-26T05:44:13.284Z,12.57
2023-03-26T05:46:40.497Z,10.95
2023-03-26T05:49:08.332Z,8.60
2023-03-26T05:51:36.297Z,9.13
2023-03-26T05:54:29.381Z,10.60
2023-03-26T05:57:08.516Z,12.45
2023-03-26T05:59:55.877Z,11.63
2023-03-26T06:02:42.992Z,8.48
2023-03-26T06:05:27.117Z,13.18
2023-03-26T06:08:17.437Z,8.18
2023-03-26T06:10:51.108Z,10.93
2023-03-26T06:13:19.141Z,8.30
2023-03-26T06:15:49.934Z,6.25
2023-03-26T06:18:26.797Z,6.78
2023-03-26T06:21:20.015Z,7.82
2023-03-26T06:24:07.819Z,12.75
2023-03-26T06:26:53.749Z,7.85
2023-03-26T06:29:32.819Z,8.73
2023-03-26T06:32:26.964Z,12.23
2023-03-26T06:35:15.306Z,11.05
2023-03-26T06:37:45.855Z,10.00
2023-03-26T06:40:15.486Z,6.07
2023-03-26T06:43:10.594Z,6.28
2023-03-26T06:45:59.167Z,7.72
2023-03-26T06:48:40.526Z,6.55
2023-03-26T06:51:32.280Z,8.13
2023-03-26T06:54:09.507Z,7.28
2023-03-26T06:56:56.163Z,7.68
2023-03-26T06:59:42.445Z,5.78
2023-03-26T07:02:31.762Z,7.03
2023-03-26T07:05:18.687Z,6.38
2023-03-26T07:08:14.273Z,7.90
2023-03-26T07:11:08.843Z,5.13
2023-03-26T07:14:06.762Z,7.00
2023-03-26T07:16:52.255Z,5.45
2023-03-26T07:19:50.619Z,3.85
2023-03-26T07:22:22.918Z,4.32
2023-03-26T07:25:10.327Z,2.75
2023-03-26T07:28:39.614Z,19.05
2023-03-26T07:31:25.227Z,7.75
2023-03-26T07:34:27.769Z,4.68
2023-03-26T07:37:29.100Z,21.42
2023-03-26T07:40:39.150Z,3.67
2023-03-26T07:43:50.112Z,2.50
2023-03-26T07:46:35.038Z,4.68
2023-03-26T07:49:29.653Z,5.53
2023-03-26T07:52:07.549Z,4.25
2023-03-26T07:55:16.248Z,7.27
2023-03-26T07:58:45.645Z,4.35
2023-03-26T08:02:00.482Z,6.82
2023-03-26T08:05:11.650Z,3.55
2023-03-26T08:08:29.718Z,2.67
2023-03-26T08:11:30.334Z,4.63
2023-03-26T08:14:23.370Z,3.15
2023-03-26T08:17:12.225Z,4.30
2023-03-26T08:20:11.610Z,4.80
2023-03-26T08:22:45.354Z,4.25
2023-03-26T08:28:23.777Z,7.30
2023-03-26T08:30:56.115Z,6.55
2023-03-26T08:33:28.110Z,3.22
2023-03-26T08:35:59.092Z,8.40
2023-03-26T08:38:29.578Z,5.78
2023-03-26T08:41:24.358Z,4.78
2023-03-26T08:44:23.272Z,2.85
2023-03-26T08:47:26.496Z,4.00
2023-03-26T08:50:38.299Z,3.22
2023-03-26T08:53:32.176Z,4.90
2023-03-26T08:56:14.366Z,4.20
2023-03-26T08:59:11.627Z,6.45
2023-03-26T09:01:39.971Z,3.17
2023-03-26T09:04:08.428Z,4.32
2023-03-26T09:06:40.187Z,3.75
2023-03-26T09:09:45.772Z,4.28
2023-03-26T09:12:26.330Z,3.45
2023-03-26T09:15:28.914Z,3.75
2023-03-26T09:18:35.161Z,4.00
2023-03-26T09:21:51.338Z,3.72
2023-03-26T09:24:54.948Z,3.08
2023-03-26T09:27:36.629Z,2.67
2023-03-26T09:30:30.757Z,3.03
2023-03-26T09:33:29.937Z,4.38
2023-03-26T09:36:35.995Z,2.47
2023-03-26T09:39:20.091Z,3.70
2023-03-26T09:42:17.743Z,2.08
2023-03-26T09:45:13.213Z,2.80
2023-03-26T09:48:10.675Z,7.18
2023-03-26T09:50:55.342Z,7.78
2023-03-26T09:53:54.219Z,2.38
2023-03-26T09:56:49.847Z,2.90
2023-03-26T09:59:29.729Z,3.78
2023-03-26T10:02:22.724Z,2.88
2023-03-26T10:05:20.996Z,3.28
2023-03-26T10:08:22.056Z,3.00
2023-03-26T10:11:01.458Z,2.45
2023-03-26T10:13:42.732Z,2.50
2023-03-26T10:16:27.881Z,2.30
2023-03-26T10:19:15.283Z,2.58
2023-03-26T10:21:49.461Z,2.05
2023-03-26T10:24:29.285Z,1.75
2023-03-26T10:27:25.256Z,1.92
2023-03-26T10:30:24.322Z,2.45
2023-03-26T10:33:29.952Z,1.92
2023-03-26T10:35:57.912Z,1.65
2023-03-26T10:38:45.327Z,7.25
2023-03-26T10:41:22.999Z,2.58
2023-03-26T10:44:18.564Z,2.15
2023-03-26T10:47:09.135Z,2.22
2023-03-26T10:49:42.954Z,5.05
2023-03-26T10:52:21.093Z,3.28
2023-03-26T10:55:32.156Z,15.48
2023-03-26T10:58:02.577Z,2.05
2023-03-26T11:00:31.832Z,1.65
2023-03-26T11:03:27.710Z,2.47
2023-03-26T11:06:03.397Z,3.00
2023-03-26T11:08:55.970Z,2.20
2023-03-26T11:11:32.659Z,2.70
2023-03-26T11:14:08.180Z,1.17
2023-03-26T11:16:55.327Z,18.70
2023-03-26T11:19:42.240Z,5.55
2023-03-26T11:22:43.176Z,2.47
2023-03-26T11:25:34.321Z,2.47
2023-03-26T11:28:20.767Z,2.38
2023-03-26T11:30:55.143Z,1.33
2023-03-26T11:33:32.892Z,2.72
2023-03-26T11:36:08.474Z,1.17
2023-03-26T11:38:43.820Z,2.80
2023-03-26T11:41:23.675Z,2.05
2023-03-26T11:44:09.591Z,3.53
2023-03-26T11:46:43.303Z,1.40
2023-03-26T11:49:14.945Z,2.78
2023-03-26T11:51:47.613Z,2.42
2023-03-26T11:54:17.514Z,2.97
2023-03-26T11:57:07.151Z,1.40
2023-03-26T11:59:53.730Z,1.20
2023-03-26T12:02:34.616Z,1.88
2023-03-26T12:05:19.260Z,2.55
2023-03-26T12:07:51.961Z,1.70
2023-03-26T12:10:38.531Z,0.80
2023-03-26T12:13:47.985Z,2.55
2023-03-26T12:16:18.886Z,1.70
2023-03-26T12:19:00.221Z,1.80
2023-03-26T12:21:30.326Z,2.70
2023-03-26T12:24:05.515Z,1.75
2023-03-26T12:26:45.409Z,0.82
2023-03-26T12:29:17.414Z,1.67
2023-03-26T12:32:03.958Z,1.00
2023-03-26T12:34:38.110Z,2.25
2023-03-26T12:37:08.177Z,1.85
2023-03-26T12:40:08.146Z,4.43
2023-03-26T12:44:47.435Z,1.45
2023-03-26T12:45:29.419Z,1.33
2023-03-26T12:48:04.257Z,2.15
2023-03-26T12:51:03.824Z,1.20
2023-03-26T12:53:43.640Z,1.38
2023-03-26T12:56:27.590Z,1.63
2023-03-26T12:59:23.922Z,1.40
2023-03-26T13:02:04.651Z,1.67
2023-03-26T13:05:05.631Z,1.45
2023-03-26T13:07:52.787Z,1.23
2023-03-26T13:10:50.252Z,2.47
2023-03-26T13:13:41.913Z,1.02
2023-03-26T13:16:29.675Z,2.55
2023-03-26T13:19:28.288Z,2.85
2023-03-26T13:22:22.310Z,1.42
2023-03-26T13:25:22.683Z,1.60
2023-03-26T13:28:02.784Z,2.28
2023-03-26T13:30:37.166Z,2.88
2023-03-26T13:33:12.627Z,0.95
2023-03-26T13:35:50.465Z,1.13
2023-03-26T13:38:58.940Z,1.42
2023-03-26T13:41:59.842Z,2.10
2023-03-26T13:44:43.248Z,1.02
2023-03-26T13:47:19.471Z,2.13
2023-03-26T13:50:04.217Z,1.55
2023-03-26T13:52:31.870Z,0.95
2023-03-26T13:55:21.304Z,0.98
2023-03-26T13:57:58.216Z,1.13
2023-03-26T14:00:49.486Z,2.72
2023-03-26T14:03:56.950Z,1.63
2023-03-26T14:06:44.255Z,1.00
2023-03-26T14:09:28.271Z,1.58
2023-03-26T14:12:24.378Z,1.85
2023-03-26T14:15:02.405Z,1.17
2023-03-26T14:17:58.132Z,1.45
2023-03-26T14:21:05.632Z,2.67
2023-03-26T14:23:36.372Z,3.47
2023-03-26T14:26:25.380Z,2.03
2023-03-26T14:29:10.028Z,1.33
2023-03-26T14:31:58.908Z,2.65
2023-03-26T14:34:55.304Z,1.42
2023-03-26T14:37:39.916Z,1.05
2023-03-26T14:40:29.002Z,5.10
2023-03-26T14:43:15.885Z,1.70
2023-03-26T14:46:08.697Z,2.92
2023-03-26T14:48:59.151Z,3.45
2023-03-26T14:52:00.886Z,2.25
2023-03-26T14:54:32.148Z,10.40
2023-03-26T14:57:23.923Z,2.90
2023-03-26T15:00:08.840Z,1.67
2023-03-26T15:03:02.542Z,1.88
2023-03-26T15:05:52.747Z,2.17
2023-03-26T15:08:54.278Z,3.60
2023-03-26T15:11:46.855Z,3.58
2023-03-26T15:14:52.325Z,3.00
2023-03-26T15:17:49.363Z,3.53
2023-03-26T15:20:46.195Z,7.03
2023-03-26T15:23:33.326Z,2.28
2023-03-26T15:26:27.745Z,1.75
2023-03-26T15:29:14.498Z,1.88
2023-03-26T15:32:04.842Z,1.90
2023-03-26T15:35:07.771Z,4.10
2023-03-26T15:37:49.793Z,1.70
2023-03-26T15:40:32.373Z,2.50
2023-03-26T15:43:06.133Z,3.28
2023-03-26T15:45:49.468Z,2.50
2023-03-26T15:48:38.048Z,4.32
2023-03-26T15:51:24.298Z,3.88
2023-03-26T15:54:20.929Z,13.35
2023-03-26T15:57:03.934Z,4.80
2023-03-26T16:00:01.478Z,59.58
2023-03-26T16:02:39.162Z,22.02
2023-03-26T16:05:38.639Z,11.88
2023-03-26T16:08:39.784Z,7.97
2023-03-26T16:11:12.992Z,5.30
2023-03-26T16:13:52.322Z,7.70
2023-03-26T16:16:26.171Z,7.05
2023-03-26T16:19:20.263Z,12.60
2023-03-26T16:24:32.133Z,11.82
2023-03-26T16:27:15.839Z,12.50
2023-03-26T16:30:14.093Z,13.85
2023-03-26T16:32:48.869Z,14.68
2023-03-26T16:35:18.073Z,16.67
2023-03-26T16:37:50.845Z,8.65
2023-03-26T16:40:18.752Z,8.63
2023-03-26T16:42:52.295Z,8.77
2023-03-26T16:45:49.108Z,10.70
2023-03-26T16:48:48.751Z,11.98
2023-03-26T16:52:08.628Z,13.43
2023-03-26T16:54:39.701Z,14.52
2023-03-26T16:57:30.564Z,25.25
2023-03-26T17:00:16.685Z,31.48
2023-03-26T17:03:09.184Z,31.10
2023-03-26T17:05:58.873Z,29.85
2023-03-26T17:08:48.031Z,24.35
2023-03-26T17:11:53.469Z,21.27
2023-03-26T17:15:06.538Z,31.13
2023-03-26T17:17:51.431Z,19.77
2023-03-26T17:20:42.084Z,17.10
2023-03-26T17:23:28.920Z,15.57
2023-03-26T17:26:04.527Z,14.20
2023-03-26T17:28:45.295Z,12.23
2023-03-26T17:31:26.667Z,13.02
2023-03-26T17:33:55.970Z,9.73
2023-03-26T17:36:40.181Z,15.32
2023-03-26T17:39:42.486Z,24.08
2023-03-26T17:42:19.050Z,23.95
2023-03-26T17:44:53.411Z,26.73
2023-03-26T17:47:39.892Z,28.13
2023-03-26T17:50:23.698Z,23.20
2023-03-26T17:53:00.801Z,21.35
2023-03-26T17:55:32.565Z,12.15
2023-03-26T17:58:04.326Z,13.05
2023-03-26T18:00:36.060Z,12.88
2023-03-26T18:03:16.653Z,13.18
2023-03-26T18:05:47.433Z,17.63
2023-03-26T18:08:35.241Z,27.05
2023-03-26T18:11:08.733Z,25.63
2023-03-26T18:16:29.456Z,36.78
2023-03-26T18:19:03.960Z,110.53
2023-03-26T18:21:40.162Z,47.53
2023-03-26T18:24:15.379Z,26.70
2023-03-26T18:26:47.052Z,21.70
2023-03-26T18:29:28.499Z,19.70
2023-03-26T18:32:05.204Z,49.35
2023-03-26T18:34:38.876Z,125.95
2023-03-26T18:37:23.901Z,35.92
2023-03-26T18:40:02.942Z,27.42
2023-03-26T18:42:33.153Z,29.83
2023-03-26T18:45:07.349Z,44.72
2023-03-26T18:47:38.921Z,34.92
2023-03-26T18:50:08.615Z,35.45
2023-03-26T18:52:37.734Z,28.58
2023-03-26T18:55:06.273Z,17.95
2023-03-26T18:57:35.060Z,13.35
2023-03-26T19:00:21.999Z,20.00
2023-03-26T19:03:05.278Z,27.55
2023-03-26T19:05:35.936Z,21.50
2023-03-26T19:08:08.289Z,26.20
2023-03-26T19:10:38.533Z,31.30
2023-03-26T19:13:06.813Z,32.22
2023-03-26T19:15:36.745Z,35.92
2023-03-26T19:18:10.004Z,34.85
2023-03-26T19:20:59.172Z,69.82
2023-03-26T19:23:32.596Z,94.07
2023-03-26T19:26:04.612Z,92.55
2023-03-26T19:28:36.964Z,73.50
2023-03-26T19:31:27.055Z,82.38
2023-03-26T19:33:59.288Z,122.00
2023-03-26T19:36:32.824Z,121.75
2023-03-26T19:39:02.800Z,100.95
2023-03-26T19:41:35.869Z,101.82
2023-03-26T19:44:16.344Z,78.40
2023-03-26T19:46:53.539Z,64.78
2023-03-26T19:49:47.800Z,41.00
2023-03-26T19:52:19.678Z,31.60
2023-03-26T19:54:59.459Z,28.40
2023-03-26T19:57:32.138Z,31.52
2023-03-26T20:00:01.137Z,33.38
2023-03-26T20:02:30.482Z,26.33
2023-03-26T20:04:58.031Z,23.13
2023-03-26T20:07:35.437Z,19.10
2023-03-26T20:10:05.912Z,35.17
2023-03-26T20:12:33.861Z,19.58
2023-03-26T20:15:02.244Z,18.75
2023-03-26T20:17:31.858Z,19.55
2023-03-26T20:19:59.941Z,17.58
2023-03-26T20:22:31.494Z,12.63
2023-03-26T20:25:01.562Z,12.30
2023-03-26T20:27:30.565Z,10.90
2023-03-26T20:29:59.521Z,14.57
2023-03-26T20:32:28.686Z,11.70
2023-03-26T20:34:57.964Z,13.57
2023-03-26T20:37:27.987Z,13.00
2023-03-26T20:40:02.175Z,10.60
2023-03-26T20:42:33.779Z,15.10
2023-03-26T20:45:02.161Z,13.43
2023-03-26T20:47:31.241Z,21.42
2023-03-26T20:49:59.042Z,21.13
2023-03-26T20:52:28.747Z,24.80
2023-03-26T20:54:59.264Z,24.08
2023-03-26T20:57:29.083Z,18.30
2023-03-26T20:59:56.314Z,15.20
2023-03-26T21:02:26.136Z,15.55
2023-03-26T21:04:54.506Z,17.08
2023-03-26T21:07:22.092Z,13.65
2023-03-26T21:09:50.188Z,12.43
2023-03-26T21:12:26.724Z,13.35
2023-03-26T21:14:56.602Z,13.20
2023-03-26T21:17:24.542Z,14.50
2023-03-26T21:19:54.444Z,12.95
2023-03-26T21:22:33.767Z,14.70
2023-03-26T21:25:22.869Z,28.83
2023-03-26T21:28:17.398Z,86.60
2023-03-26T21:30:44.971Z,29.80
2023-03-26T21:33:12.079Z,33.92
2023-03-26T21:35:39.699Z,25.10
2023-03-26T21:38:09.470Z,15.98
2023-03-26T21:40:39.012Z,13.88
2023-03-26T21:43:11.855Z,14.13
2023-03-26T21:45:39.742Z,12.18
2023-03-26T21:48:07.303Z,10.43
2023-03-26T21:50:35.031Z,10.70
2023-03-26T21:53:02.467Z,9.50
2023-03-26T21:55:36.879Z,11.60
2023-03-26T21:58:07.476Z,15.32
2023-03-26T22:01:00.983Z,17.60
2023-03-26T22:03:51.083Z,16.05
2023-03-26T22:06:42.808Z,7.88
2023-03-26T22:09:12.811Z,11.73
2023-03-26T22:11:42.198Z,11.32
2023-03-26T22:14:09.638Z,8.40
2023-03-26T22:16:36.799Z,6.78
2023-03-26T22:19:03.940Z,8.77
2023-03-26T22:21:31.173Z,7.68
2023-03-26T22:23:58.424Z,10.70
2023-03-26T22:26:26.173Z,13.13
2023-03-26T22:28:53.619Z,8.90
2023-03-26T22:31:20.813Z,14.63
2023-03-26T22:33:48.522Z,15.73
2023-03-26T22:36:22.617Z,12.38
2023-03-26T22:38:53.984Z,12.93
2023-03-26T22:41:22.377Z,13.23
2023-03-26T22:43:52.190Z,12.68
2023-03-26T22:46:20.145Z,10.88
2023-03-26T22:48:48.458Z,10.32
2023-03-26T22:51:16.249Z,9.45
2023-03-26T22:53:44.132Z,7.57
2023-03-26T22:56:14.428Z,9.02
2023-03-26T22:58:42.363Z,12.93
2023-03-26T23:01:19.295Z,8.85
2023-03-26T23:03:46.735Z,9.90
2023-03-26T23:06:14.186Z,10.48
2023-03-26T23:08:41.864Z,14.77
2023-03-26T23:11:10.116Z,18.05
2023-03-26T23:13:37.284Z,16.80
2023-03-26T23:16:05.155Z,17.77
2023-03-26T23:18:32.405Z,20.27
2023-03-26T23:20:59.547Z,19.90
2023-03-26T23:23:29.353Z,24.27
2023-03-26T23:26:07.045Z,22.70
2023-03-26T23:28:35.539Z,26.45
2023-03-26T23:31:05.979Z,25.30
2023-03-26T23:33:35.897Z,19.52
2023-03-26T23:36:09.061Z,20.90
2023-03-26T23:38:44.040Z,20.05
2023-03-26T23:41:15.871Z,17.08
2023-03-26T23:43:54.610Z,17.52
2023-03-26T23:46:31.007Z,14.93
2023-03-26T23:49:00.198Z,17.20
2023-03-26T23:51:27.511Z,14.57
2023-03-26T23:53:54.733Z,14.93
2023-03-26T23:56:22.017Z,11.93
2023-03-26T23:58:49.289Z,14.60
